createdAt,value
2023-03-29T00:01:02.705Z,1.92
2023-03-29T00:11:25.148Z,1.92
2023-03-29T00:21:46.062Z,1.89
2023-03-29T00:32:07.688Z,1.85
2023-03-29T00:42:29.053Z,1.80
2023-03-29T00:52:55.359Z,1.73
2023-03-29T01:03:24.900Z,1.71
2023-03-29T01:14:07.669Z,1.66
2023-03-29T01:25:01.534Z,1.63
2023-03-29T01:35:28.437Z,1.62
2023-03-29T01:46:35.831Z,1.59
2023-03-29T01:56:58.726Z,1.57
2023-03-29T02:07:24.564Z,1.56
2023-03-29T02:17:46.518Z,1.55
2023-03-29T02:28:08.054Z,1.50
2023-03-29T02:38:31.523Z,1.46
2023-03-29T02:48:54.792Z,1.43
2023-03-29T02:59:19.608Z,1.44
2023-03-29T03:09:41.351Z,1.43
2023-03-29T03:20:05.447Z,1.41
2023-03-29T03:30:27.353Z,1.41
2023-03-29T03:41:07.506Z,1.40
2023-03-29T03:51:29.156Z,1.42
2023-03-29T04:01:50.732Z,1.38
2023-03-29T04:12:15.325Z,1.36
2023-03-29T04:22:38.036Z,1.37
2023-03-29T04:32:59.489Z,1.37
2023-03-29T04:43:23.931Z,1.34
2023-03-29T04:54:01.956Z,1.34
2023-03-29T05:04:24.927Z,1.35
2023-03-29T05:14:58.684Z,1.33
2023-03-29T05:25:21.587Z,1.32
2023-03-29T05:35:43.876Z,1.29
2023-03-29T05:46:06.411Z,1.31
2023-03-29T05:56:34.833Z,1.31
2023-03-29T06:06:56.826Z,1.33
2023-03-29T06:17:19.215Z,1.37
2023-03-29T06:27:42.034Z,1.45
2023-03-29T06:38:05.010Z,1.47
2023-03-29T06:49:01.801Z,1.52
2023-03-29T06:59:38.948Z,1.56
2023-03-29T07:10:10.116Z,1.60
2023-03-29T07:21:00.563Z,1.75
2023-03-29T07:31:22.578Z,1.83
2023-03-29T07:41:50.879Z,1.86
2023-03-29T07:52:13.037Z,1.93
2023-03-29T08:02:34.867Z,1.87
2023-03-29T08:12:58.455Z,1.92
2023-03-29T08:23:43.221Z,1.89
2023-03-29T08:34:12.178Z,1.89
2023-03-29T08:45:11.583Z,1.97
2023-03-29T08:55:38.489Z,2.05
2023-03-29T09:06:31.926Z,2.08
2023-03-29T09:17:35.271Z,2.11
2023-03-29T09:28:05.940Z,2.18
2023-03-29T09:38:42.901Z,2.28
2023-03-29T09:49:09.566Z,2.34
2023-03-29T09:59:31.181Z,2.43
2023-03-29T10:09:53.198Z,2.54
2023-03-29T10:20:20.136Z,2.68
2023-03-29T10:30:43.027Z,2.81
2023-03-29T10:41:11.101Z,2.96
2023-03-29T10:51:32.775Z,3.08
2023-03-29T11:02:15.349Z,3.22
2023-03-29T11:12:36.737Z,3.33
2023-03-29T11:23:26.590Z,3.46
2023-03-29T11:33:47.507Z,3.58
2023-03-29T11:44:20.851Z,3.68
2023-03-29T11:54:55.913Z,3.78
2023-03-29T12:05:24.992Z,3.89
2023-03-29T12:15:53.232Z,3.97
2023-03-29T12:26:48.682Z,4.01
2023-03-29T12:37:32.289Z,4.09
2023-03-29T12:48:18.658Z,4.19
2023-03-29T12:58:39.753Z,4.27
2023-03-29T13:09:03.771Z,4.40
2023-03-29T13:19:40.242Z,4.60
2023-03-29T13:30:23.215Z,4.75
2023-03-29T13:40:48.011Z,4.87
2023-03-29T13:51:53.262Z,5.01
2023-03-29T14:02:26.166Z,5.10
2023-03-29T14:12:48.041Z,5.12
2023-03-29T14:23:15.634Z,5.09
2023-03-29T14:33:38.357Z,5.06
2023-03-29T14:44:00.654Z,5.03
2023-03-29T14:54:25.410Z,5.00
2023-03-29T15:04:58.375Z,5.00
2023-03-29T15:15:19.653Z,5.01
2023-03-29T15:25:51.617Z,5.03
2023-03-29T15:36:14.171Z,5.02
2023-03-29T15:46:35.622Z,5.04
2023-03-29T15:57:07.449Z,5.06
2023-03-29T16:07:30.395Z,5.08
2023-03-29T16:17:52.005Z,5.07
2023-03-29T16:28:13.609Z,5.09
2023-03-29T16:38:34.511Z,5.14
2023-03-29T16:48:55.901Z,5.12
2023-03-29T16:59:17.180Z,5.12
2023-03-29T17:09:38.475Z,5.10
2023-03-29T17:19:59.449Z,5.07
2023-03-29T17:30:20.904Z,5.03
2023-03-29T17:40:42.010Z,5.00
2023-03-29T17:51:03.680Z,5.02
2023-03-29T18:01:24.934Z,5.06
2023-03-29T18:11:46.296Z,5.06
2023-03-29T18:22:07.952Z,5.06
2023-03-29T18:32:28.989Z,5.06
2023-03-29T18:42:53.247Z,5.06
2023-03-29T18:53:14.834Z,5.02
2023-03-29T19:03:36.551Z,4.98
2023-03-29T19:13:58.035Z,4.95
2023-03-29T19:24:19.746Z,4.91
2023-03-29T19:34:41.098Z,4.91
2023-03-29T19:45:04.109Z,4.90
2023-03-29T19:55:25.587Z,4.90
2023-03-29T20:05:47.056Z,4.89
2023-03-29T20:16:10.816Z,4.83
2023-03-29T20:26:32.297Z,4.76
2023-03-29T20:37:01.055Z,4.73
2023-03-29T20:47:23.755Z,4.68
2023-03-29T20:57:44.898Z,4.66
2023-03-29T21:08:06.162Z,4.64
2023-03-29T21:18:28.129Z,4.64
2023-03-29T21:28:49.320Z,4.64
2023-03-29T21:39:10.692Z,4.63
2023-03-29T21:49:32.325Z,4.63
2023-03-29T21:59:53.632Z,4.62
2023-03-29T22:10:15.819Z,4.62
2023-03-29T22:20:37.067Z,4.61
2023-03-29T22:31:02.470Z,4.62
2023-03-29T22:41:25.009Z,4.60
2023-03-29T22:51:46.404Z,4.59
2023-03-29T23:02:08.114Z,4.58
2023-03-29T23:12:30.415Z,4.59
2023-03-29T23:22:51.800Z,4.58
2023-03-29T23:33:14.722Z,4.58
2023-03-29T23:43:37.396Z,4.58
2023-03-29T23:53:58.428Z,4.58
